Atyray, Kazakhstan
Current Conditions -  °F | °C
As of 12:30 AM on Tuesday 27 Jan 2015 (Local Time) from UATG Reporting Station
Clear Clear  
Wind Chill: -12°   Ceiling: Unl
Heat Index:   Visibility: 6mi
Dew Point:   Wind: 18mph
Humidity: 79%   Direction: 110°ESE
Pressure: 30.62"   Gusts: NA
Location:  47.1°N, 51.72°E
Report Text: UATG 262030Z 11008MPS CAVOK M14/M17 Q1037 R14/82//68 NOSIG RMKQFE780/1040
Loading
Personal Weather Stations






























Interactive Weather Map New forecast layout! Learn more

10-Day Weather Forecast

Advertisements
Track Severe Weather on mobile